Time;durP1;ratioP1;P1;durP2;ratioP2;P2;SDS_P1;SDS_P2;PMS_P1;PMS_P2;Temp;Humidity;BMP_temperature;BMP_pressure;BME280_temperature;BME280_humidity;BME280_pressure;Samples;Min_cycle;Max_cycle;Signal;HPM_P1;HPM_P2
2023/10/18 00:01:07;;;;;;;32.27;29.87;;;4.60;87.80;;;;;;5033527;28;20180;-89
2023/10/18 00:03:33;;;;;;;32.73;30.43;;;4.40;87.80;;;;;;5033826;28;20250;-89
2023/10/18 00:06:11;;;;;;;31.77;29.37;;;4.30;87.90;;;;;;5033196;28;20193;-88
2023/10/18 00:08:37;;;;;;;33.53;31.13;;;4.00;87.90;;;;;;5033240;28;20207;-88
2023/10/18 00:11:03;;;;;;;31.13;28.73;;;3.80;88.20;;;;;;5034489;28;20192;-88
2023/10/18 00:13:30;;;;;;;31.70;29.50;;;3.80;88.70;;;;;;5034654;28;20173;-89
2023/10/18 00:16:05;;;;;;;32.37;29.80;;;3.80;89.00;;;;;;5033750;28;20199;-87
2023/10/18 00:18:30;;;;;;;29.60;27.50;;;3.80;89.30;;;;;;5034970;28;20312;-88
2023/10/18 00:21:00;;;;;;;30.00;27.90;;;3.70;89.40;;;;;;5033394;28;20656;-88
2023/10/18 00:23:27;;;;;;;31.03;28.73;;;3.80;89.70;;;;;;5033273;28;20222;-89
2023/10/18 00:25:56;;;;;;;28.33;26.23;;;3.80;89.80;;;;;;5033039;28;20199;-88
2023/10/18 00:28:22;;;;;;;17.90;16.50;;;3.90;90.00;;;;;;5033721;28;20178;-89
2023/10/18 00:30:50;;;;;;;17.73;16.30;;;3.90;90.00;;;;;;5032704;28;20176;-89
2023/10/18 00:33:18;;;;;;;18.33;17.00;;;4.00;90.00;;;;;;5033951;28;20172;-89
2023/10/18 00:35:44;;;;;;;17.37;15.97;;;4.00;89.90;;;;;;5032705;28;20246;-89
2023/10/18 00:38:14;;;;;;;16.80;15.40;;;3.90;89.80;;;;;;5032757;28;20176;-89
2023/10/18 00:40:40;;;;;;;16.93;15.53;;;3.90;89.90;;;;;;5032759;28;20258;-89
2023/10/18 00:43:14;;;;;;;17.07;15.77;;;3.90;90.00;;;;;;5032933;28;20206;-89
2023/10/18 00:45:44;;;;;;;14.97;13.93;;;3.80;89.90;;;;;;5033923;28;20263;-89
2023/10/18 00:48:11;;;;;;;14.83;13.73;;;3.90;89.90;;;;;;5031831;28;20169;-89
2023/10/18 00:50:39;;;;;;;15.70;14.27;;;3.90;89.90;;;;;;5033668;28;20180;-90
2023/10/18 00:53:06;;;;;;;14.63;13.53;;;3.90;89.70;;;;;;5033710;28;20168;-90
2023/10/18 00:55:31;;;;;;;16.13;14.90;;;3.80;89.60;;;;;;5033650;28;20187;-89
2023/10/18 00:57:57;;;;;;;16.20;14.90;;;3.80;89.50;;;;;;5033156;28;20195;-90
2023/10/18 01:00:24;;;;;;;28.53;26.20;;;3.80;89.70;;;;;;5032278;28;20176;-90
2023/10/18 01:02:53;;;;;;;27.90;25.50;;;3.80;89.60;;;;;;5032443;28;20255;-90
2023/10/18 01:05:19;;;;;;;25.47;23.80;;;3.80;89.70;;;;;;5032245;28;20278;-89
2023/10/18 01:07:47;;;;;;;25.57;23.47;;;3.90;89.70;;;;;;5032342;28;20180;-89
2023/10/18 01:10:12;;;;;;;26.50;24.07;;;3.80;89.70;;;;;;5032286;28;20198;-89
2023/10/18 01:12:38;;;;;;;23.50;21.90;;;3.90;89.70;;;;;;5032312;28;20176;-89
2023/10/18 01:15:08;;;;;;;25.00;23.30;;;3.90;89.70;;;;;;5032099;28;20701;-88
2023/10/18 01:17:36;;;;;;;25.67;23.67;;;3.80;89.50;;;;;;5033322;28;20264;-89
2023/10/18 01:20:33;;;;;;;26.70;24.90;;;3.80;89.50;;;;;;5032201;28;20172;-89
2023/10/18 01:22:48;;;;;;;28.03;26.03;;;3.80;89.40;;;;;;5033178;28;20183;-89
2023/10/18 01:25:14;;;;;;;29.23;27.03;;;3.80;89.30;;;;;;5032032;28;20246;-89
2023/10/18 01:27:39;;;;;;;15.77;14.67;;;3.80;89.30;;;;;;5032118;28;20648;-89
2023/10/18 01:30:06;;;;;;;16.10;14.90;;;3.70;89.30;;;;;;5033592;28;20266;-91
2023/10/18 01:32:31;;;;;;;16.60;14.87;;;3.80;89.30;;;;;;5033612;28;20168;-89
2023/10/18 01:34:57;;;;;;;15.47;14.37;;;3.70;89.30;;;;;;5032159;28;20203;-90
2023/10/18 01:37:22;;;;;;;16.37;15.07;;;3.80;89.30;;;;;;5032089;28;20192;-89
2023/10/18 01:39:52;;;;;;;17.90;16.30;;;3.80;89.20;;;;;;5033144;28;20184;-88
2023/10/18 01:42:18;;;;;;;17.60;16.23;;;3.80;89.20;;;;;;5031842;28;20211;-88
2023/10/18 01:44:45;;;;;;;18.97;17.40;;;3.60;89.00;;;;;;5031852;28;20212;-87
2023/10/18 01:47:12;;;;;;;18.47;17.17;;;3.60;89.10;;;;;;5032079;28;20179;-87
2023/10/18 01:49:44;;;;;;;18.53;17.23;;;3.60;89.20;;;;;;5032420;28;20206;-90
2023/10/18 01:52:12;;;;;;;18.50;17.20;;;3.40;89.20;;;;;;5032155;28;20584;-89
2023/10/18 01:54:38;;;;;;;19.90;18.40;;;3.30;89.40;;;;;;5033082;28;20739;-89
2023/10/18 01:57:06;;;;;;;18.27;16.97;;;3.30;89.50;;;;;;5031814;28;20184;-89
2023/10/18 01:59:34;;;;;;;18.97;17.60;;;3.20;89.80;;;;;;5033549;28;20184;-89
2023/10/18 02:02:05;;;;;;;30.20;28.00;;;3.30;89.90;;;;;;5035666;28;20287;-90
2023/10/18 02:04:36;;;;;;;30.70;28.17;;;3.30;90.00;;;;;;5035409;28;20234;-89
2023/10/18 02:07:02;;;;;;;28.67;26.43;;;3.40;90.00;;;;;;5035591;28;20582;-90
2023/10/18 02:09:52;;;;;;;28.53;26.40;;;3.40;90.10;;;;;;5036651;28;20237;-87
2023/10/18 02:12:21;;;;;;;25.67;23.53;;;3.40;90.10;;;;;;5036867;28;20235;-87
2023/10/18 02:14:51;;;;;;;22.93;21.33;;;3.50;90.10;;;;;;5036655;28;20274;-91
2023/10/18 02:17:18;;;;;;;24.20;22.50;;;3.50;90.10;;;;;;5036594;28;20211;-90
2023/10/18 02:19:44;;;;;;;23.33;21.63;;;3.50;90.00;;;;;;5036568;28;20671;-89
2023/10/18 02:22:13;;;;;;;24.93;23.33;;;3.50;90.00;;;;;;5035204;28;20603;-89
2023/10/18 02:24:38;;;;;;;26.17;23.97;;;3.50;89.90;;;;;;5035088;28;20315;-89
2023/10/18 02:27:08;;;;;;;23.13;21.57;;;3.50;89.90;;;;;;5035160;28;20208;-88
2023/10/18 02:29:34;;;;;;;14.73;13.40;;;3.50;89.80;;;;;;5035177;28;20191;-89
2023/10/18 02:32:04;;;;;;;14.37;13.27;;;3.50;89.80;;;;;;5035083;28;20668;-89
2023/10/18 02:34:33;;;;;;;15.20;14.00;;;3.50;89.80;;;;;;5034855;28;20554;-89
2023/10/18 02:37:00;;;;;;;14.80;13.80;;;3.50;89.70;;;;;;5036168;28;20518;-88
2023/10/18 02:39:32;;;;;;;14.80;13.60;;;3.50;89.60;;;;;;5036283;28;20168;-89
2023/10/18 02:41:58;;;;;;;14.30;13.20;;;3.50;89.60;;;;;;5034976;28;20200;-89
2023/10/18 02:44:24;;;;;;;14.63;13.60;;;3.50;89.50;;;;;;5034716;28;20239;-89
2023/10/18 02:46:52;;;;;;;14.97;13.90;;;3.50;89.40;;;;;;5034939;28;20176;-90
2023/10/18 02:49:18;;;;;;;14.20;13.17;;;3.40;89.40;;;;;;5035154;28;20176;-90
2023/10/18 02:51:44;;;;;;;13.37;12.47;;;3.40;89.30;;;;;;5034603;28;20187;-89
2023/10/18 02:56:39;;;;;;;14.80;13.40;;;3.40;89.20;;;;;;5036540;28;20206;-88
2023/10/18 02:59:07;;;;;;;14.90;13.40;;;3.40;89.20;;;;;;5035825;28;20647;-89
2023/10/18 03:01:40;;;;;;;23.23;21.60;;;3.40;89.10;;;;;;5034585;28;20187;-89
2023/10/18 03:04:12;;;;;;;24.03;22.13;;;3.40;89.10;;;;;;5034368;28;20227;-88
2023/10/18 03:06:40;;;;;;;24.37;22.63;;;3.30;89.00;;;;;;5035845;28;20528;-89
2023/10/18 03:09:18;;;;;;;24.33;22.53;;;3.30;89.00;;;;;;5035601;28;20218;-88
2023/10/18 03:11:44;;;;;;;23.80;22.10;;;3.30;88.90;;;;;;5034381;28;20176;-89
2023/10/18 03:14:12;;;;;;;23.83;22.23;;;3.30;88.80;;;;;;5034440;28;20186;-89
2023/10/18 03:19:10;;;;;;;24.33;22.53;;;3.20;88.80;;;;;;5035797;28;20601;-90
2023/10/18 03:21:35;;;;;;;25.33;23.53;;;3.30;88.70;;;;;;5034114;28;20165;-89
2023/10/18 03:24:01;;;;;;;25.23;23.53;;;3.30;88.70;;;;;;5033971;28;20557;-88
2023/10/18 03:26:37;;;;;;;26.43;24.53;;;3.30;88.60;;;;;;5034090;28;20180;-89
2023/10/18 03:29:22;;;;;;;15.60;14.30;;;3.20;88.50;;;;;;5035428;28;20228;-89
2023/10/18 03:31:47;;;;;;;17.27;15.87;;;3.10;88.40;;;;;;5035427;28;20154;-89
2023/10/18 03:34:19;;;;;;;19.23;17.73;;;3.10;88.30;;;;;;5034167;28;20563;-87
2023/10/18 03:36:48;;;;;;;20.07;18.37;;;3.00;88.30;;;;;;5034289;28;20186;-89
2023/10/18 03:39:18;;;;;;;20.20;18.43;;;3.00;88.50;;;;;;5033881;28;20182;-88
2023/10/18 03:41:46;;;;;;;19.40;18.03;;;2.90;88.60;;;;;;5033753;28;20185;-87
2023/10/18 03:44:13;;;;;;;19.23;17.83;;;2.90;88.80;;;;;;5033597;28;20745;-90
2023/10/18 03:46:41;;;;;;;19.57;18.17;;;2.80;88.90;;;;;;5033965;28;20211;-89
2023/10/18 03:49:10;;;;;;;20.77;19.17;;;2.80;89.10;;;;;;5033828;28;20268;-89
2023/10/18 03:51:37;;;;;;;19.97;18.40;;;2.70;89.20;;;;;;5033534;28;20176;-89
2023/10/18 03:54:08;;;;;;;20.20;18.70;;;2.60;89.50;;;;;;5033661;28;20208;-90
2023/10/18 03:56:36;;;;;;;20.07;18.23;;;2.60;89.70;;;;;;5034768;28;20586;-89
2023/10/18 03:59:19;;;;;;;20.10;18.47;;;2.60;89.80;;;;;;5033493;28;20176;-88
2023/10/18 04:02:02;;;;;;;31.20;28.13;;;2.50;90.10;;;;;;5033523;28;20168;-89
2023/10/18 04:04:34;;;;;;;30.00;27.90;;;2.50;90.30;;;;;;5034432;28;20208;-88
2023/10/18 04:07:01;;;;;;;29.83;27.50;;;2.40;90.50;;;;;;5033540;28;20219;-89
2023/10/18 04:09:27;;;;;;;28.50;26.30;;;2.50;90.70;;;;;;5033192;28;20223;-89
2023/10/18 04:11:53;;;;;;;29.33;27.20;;;2.50;90.80;;;;;;5033178;28;20175;-89
2023/10/18 04:14:22;;;;;;;30.67;28.20;;;2.50;90.80;;;;;;5034440;28;20173;-90
2023/10/18 04:16:56;;;;;;;30.33;27.37;;;2.50;91.00;;;;;;5033105;28;20215;-88
2023/10/18 04:19:22;;;;;;;28.63;26.13;;;2.50;91.10;;;;;;5033174;28;20554;-89
2023/10/18 04:21:52;;;;;;;29.77;26.97;;;2.50;91.20;;;;;;5033155;28;20192;-88
2023/10/18 04:24:20;;;;;;;18.63;17.13;;;2.40;91.20;;;;;;5032965;28;20192;-89
2023/10/18 04:26:48;;;;;;;19.83;18.17;;;2.50;91.40;;;;;;5034612;28;20169;-89
2023/10/18 04:29:22;;;;;;;18.90;17.20;;;2.40;91.40;;;;;;5034361;28;20259;-89
2023/10/18 04:31:49;;;;;;;27.83;25.50;;;2.40;91.60;;;;;;5033108;28;20236;-88
2023/10/18 04:34:18;;;;;;;28.60;26.23;;;2.40;91.50;;;;;;5033048;28;20191;-89
2023/10/18 04:36:44;;;;;;;29.13;27.03;;;2.30;91.50;;;;;;5032790;28;20610;-88
2023/10/18 04:39:11;;;;;;;23.93;21.83;;;2.20;91.60;;;;;;5032808;28;20192;-89
2023/10/18 04:41:37;;;;;;;20.57;18.87;;;2.20;91.70;;;;;;5034074;28;20179;-89
2023/10/18 04:44:06;;;;;;;21.57;17.83;;;2.20;91.80;;;;;;5033710;28;20200;-89
2023/10/18 04:46:35;;;;;;;22.07;19.93;;;2.10;91.80;;;;;;5032570;28;20230;-88
2023/10/18 04:49:16;;;;;;;20.87;18.87;;;2.20;92.00;;;;;;5032896;28;20173;-89
2023/10/18 04:54:15;;;;;;;21.30;19.50;;;2.30;92.10;;;;;;5034158;28;20173;-88
2023/10/18 04:56:45;;;;;;;32.53;30.07;;;2.40;92.20;;;;;;5034041;28;20157;-88
2023/10/18 05:04:20;;;;;;;30.83;28.53;;;2.40;92.30;;;;;;5033718;28;20525;-88
2023/10/18 05:06:54;;;;;;;28.10;25.70;;;2.50;92.40;;;;;;5033876;28;20651;-89
2023/10/18 05:09:29;;;;;;;22.13;20.23;;;2.40;92.40;;;;;;5032320;28;20657;-89
2023/10/18 05:11:59;;;;;;;21.37;19.33;;;2.50;92.40;;;;;;5032322;28;20172;-88
2023/10/18 05:14:43;;;;;;;20.07;18.17;;;2.40;92.50;;;;;;5033440;28;20677;-90
2023/10/18 05:17:21;;;;;;;29.90;27.53;;;2.40;92.50;;;;;;5032361;28;20224;-89
2023/10/18 05:19:48;;;;;;;30.90;28.20;;;2.50;92.50;;;;;;5033495;28;20163;-89
2023/10/18 05:22:19;;;;;;;30.13;27.53;;;2.50;92.50;;;;;;5032057;28;20272;-90
2023/10/18 05:24:55;;;;;;;19.77;17.97;;;2.50;92.60;;;;;;5031912;28;20266;-89
2023/10/18 05:27:28;;;;;;;25.23;23.17;;;2.50;92.50;;;;;;5033730;28;20239;-88
2023/10/18 05:29:58;;;;;;;21.60;19.87;;;2.50;92.60;;;;;;5032397;28;20175;-87
2023/10/18 05:32:38;;;;;;;22.47;20.57;;;2.40;92.50;;;;;;5032476;28;20411;-87
2023/10/18 05:35:19;;;;;;;23.93;21.47;;;2.40;92.60;;;;;;5036381;28;20192;-89
2023/10/18 05:43:06;;;;;;;29.60;27.30;;;2.40;92.60;;;;;;5037624;28;20192;-88
2023/10/18 05:45:33;;;;;;;31.27;27.57;;;2.40;92.60;;;;;;5037463;28;20204;-88
2023/10/18 05:48:22;;;;;;;26.23;24.27;;;2.40;92.60;;;;;;5036002;28;20686;-90
2023/10/18 05:51:34;;;;;;;26.60;24.20;;;2.40;92.70;;;;;;5035869;28;20169;-89
2023/10/18 05:53:34;;;;;;;27.40;25.10;;;2.40;92.70;;;;;;5029990;28;20193;-89
2023/10/18 05:56:00;;;;;;;26.17;23.83;;;2.40;92.70;;;;;;5037006;28;20207;-90
2023/10/18 05:58:25;;;;;;;22.67;20.57;;;2.40;92.60;;;;;;5036238;28;20240;-89
2023/10/18 06:00:55;;;;;;;22.63;20.53;;;2.30;92.70;;;;;;5035649;28;20178;-89
2023/10/18 06:03:22;;;;;;;32.27;29.37;;;2.40;92.70;;;;;;5035596;28;20176;-88
2023/10/18 06:05:51;;;;;;;31.67;29.00;;;2.40;92.70;;;;;;5036791;28;20197;-89
2023/10/18 06:08:18;;;;;;;32.97;30.40;;;2.30;92.70;;;;;;5036788;28;20168;-89
2023/10/18 06:10:44;;;;;;;34.20;31.57;;;2.30;92.70;;;;;;5035627;28;20193;-88
2023/10/18 06:13:20;;;;;;;24.00;21.87;;;2.40;92.80;;;;;;5036155;28;20645;-90
2023/10/18 06:15:50;;;;;;;25.00;22.67;;;2.40;92.80;;;;;;5036003;28;20188;-88
2023/10/18 06:18:26;;;;;;;24.73;22.60;;;2.50;92.80;;;;;;5035952;28;20227;-89
2023/10/18 06:20:53;;;;;;;24.40;22.13;;;2.50;92.90;;;;;;5035619;28;20170;-90
2023/10/18 06:25:50;;;;;;;24.27;22.23;;;2.60;93.00;;;;;;5037012;28;20615;-89
2023/10/18 06:28:24;;;;;;;27.70;25.30;;;2.70;93.10;;;;;;5036757;28;20247;-88
2023/10/18 06:30:51;;;;;;;33.83;30.57;;;2.70;93.10;;;;;;5035641;28;20213;-89
2023/10/18 06:33:19;;;;;;;36.87;30.70;;;2.80;93.20;;;;;;5035350;28;20173;-89
2023/10/18 06:35:53;;;;;;;34.53;31.30;;;2.90;93.30;;;;;;5036532;28;20182;-89
2023/10/18 06:38:24;;;;;;;34.60;32.03;;;3.00;93.30;;;;;;5035250;28;20161;-91
2023/10/18 06:40:59;;;;;;;33.97;31.07;;;3.10;93.40;;;;;;5035122;28;20174;-90
2023/10/18 06:43:25;;;;;;;22.97;20.93;;;3.10;93.40;;;;;;5035043;28;20169;-89
2023/10/18 06:45:53;;;;;;;26.40;24.00;;;3.20;93.40;;;;;;5034932;28;20189;-91
2023/10/18 06:48:19;;;;;;;25.50;23.47;;;3.30;93.50;;;;;;5035141;28;20183;-90
2023/10/18 06:50:48;;;;;;;37.60;34.33;;;3.30;93.50;;;;;;5036167;28;20169;-91
2023/10/18 06:53:15;;;;;;;34.20;31.30;;;3.30;93.50;;;;;;5035268;28;20243;-90
2023/10/18 06:55:43;;;;;;;36.73;33.27;;;3.40;93.60;;;;;;5036476;28;20222;-88
2023/10/18 06:58:41;;;;;;;35.87;33.00;;;3.50;93.60;;;;;;5036028;28;20219;-90
2023/10/18 07:01:08;;;;;;;27.10;24.67;;;3.60;93.70;;;;;;5035952;28;20233;-87
2023/10/18 07:03:33;;;;;;;26.60;24.13;;;3.70;93.70;;;;;;5034611;28;20207;-89
2023/10/18 07:09:24;;;;;;;27.13;24.87;;;3.80;93.80;;;;;;4994836;28;20183;-89
2023/10/18 07:11:49;;;;;;;27.40;24.93;;;3.80;93.80;;;;;;4994705;28;20246;-91
2023/10/18 07:14:16;;;;;;;28.17;25.87;;;3.90;93.90;;;;;;5010765;28;20197;-90
2023/10/18 07:16:42;;;;;;;28.17;25.57;;;4.00;93.90;;;;;;5034701;28;20274;-90
2023/10/18 07:21:55;;;;;;;42.20;38.73;;;4.10;93.90;;;;;;5036370;28;20170;-90
2023/10/18 07:24:21;;;;;;;41.70;37.67;;;4.20;93.90;;;;;;5034321;28;20303;-89
2023/10/18 07:26:48;;;;;;;39.07;35.73;;;4.30;94.00;;;;;;5034582;28;20214;-89
2023/10/18 07:29:14;;;;;;;40.83;37.17;;;4.30;94.00;;;;;;5035705;28;20176;-90
2023/10/18 07:31:46;;;;;;;43.00;39.20;;;4.40;94.10;;;;;;5034419;28;20186;-90
2023/10/18 07:34:17;;;;;;;41.70;38.00;;;4.50;94.10;;;;;;5034251;28;20552;-90
2023/10/18 07:36:44;;;;;;;42.93;38.47;;;4.60;94.10;;;;;;5034326;28;20183;-89
2023/10/18 07:39:16;;;;;;;44.87;40.40;;;4.70;94.10;;;;;;5034223;28;20222;-89
2023/10/18 07:41:42;;;;;;;44.77;40.73;;;4.80;94.10;;;;;;5035391;28;20263;-89
2023/10/18 07:44:08;;;;;;;41.70;38.30;;;4.90;94.20;;;;;;5034081;28;20680;-91
2023/10/18 07:46:39;;;;;;;31.83;28.93;;;5.00;94.20;;;;;;5033924;28;20193;-90
2023/10/18 07:49:07;;;;;;;32.40;28.87;;;5.00;94.20;;;;;;5035757;28;20580;-91
2023/10/18 07:51:34;;;;;;;32.20;28.60;;;5.10;94.20;;;;;;5036515;28;20176;-92
2023/10/18 07:54:00;;;;;;;32.13;29.20;;;5.20;94.20;;;;;;5035064;28;20188;-90
2023/10/18 07:56:29;;;;;;;33.03;29.47;;;5.30;94.20;;;;;;5034618;28;20228;-91
2023/10/18 07:59:27;;;;;;;33.03;29.70;;;5.40;94.10;;;;;;5036000;28;20645;-91
2023/10/18 08:01:52;;;;;;;33.43;29.90;;;5.50;94.20;;;;;;5035279;28;20180;-91
2023/10/18 08:04:22;;;;;;;32.83;29.70;;;5.50;94.10;;;;;;5033793;28;20755;-89
2023/10/18 08:06:50;;;;;;;41.50;35.23;;;5.60;94.10;;;;;;5036040;28;20176;-90
2023/10/18 08:09:17;;;;;;;38.93;35.40;;;5.70;94.10;;;;;;5033863;28;20185;-89
2023/10/18 08:11:44;;;;;;;35.17;29.43;;;5.80;94.10;;;;;;5033394;28;20181;-89
2023/10/18 08:14:16;;;;;;;34.37;30.97;;;5.90;94.00;;;;;;5034684;28;20180;-89
2023/10/18 08:17:46;;;;;;;33.67;30.30;;;6.00;94.00;;;;;;5035096;28;20184;-90
2023/10/18 08:19:55;;;;;;;44.23;40.50;;;6.10;93.90;;;;;;5026016;28;20191;-91
2023/10/18 08:22:22;;;;;;;43.33;39.50;;;6.20;93.80;;;;;;5036467;28;20161;-92
2023/10/18 08:24:50;;;;;;;42.83;38.77;;;6.40;93.80;;;;;;5034272;28;20299;-91
2023/10/18 08:27:16;;;;;;;42.87;39.40;;;6.50;93.80;;;;;;5033928;28;20187;-91
2023/10/18 08:29:42;;;;;;;41.67;38.17;;;6.60;93.70;;;;;;5033732;28;20602;-92
2023/10/18 08:32:17;;;;;;;41.93;38.53;;;6.70;93.60;;;;;;5033881;28;20176;-91
2023/10/18 08:34:44;;;;;;;39.40;36.20;;;6.80;93.50;;;;;;5033127;28;20614;-90
2023/10/18 08:37:14;;;;;;;41.47;37.87;;;6.80;93.40;;;;;;5034428;28;20230;-90
2023/10/18 08:39:40;;;;;;;39.13;35.60;;;6.90;93.30;;;;;;5034798;28;20276;-90
2023/10/18 08:42:10;;;;;;;36.97;33.73;;;7.00;93.20;;;;;;5033814;28;20185;-89
2023/10/18 08:44:38;;;;;;;40.10;35.73;;;7.20;93.00;;;;;;5035214;28;20196;-91
2023/10/18 08:49:52;;;;;;;38.73;35.53;;;7.30;92.60;;;;;;5035519;28;20157;-89
2023/10/18 08:52:23;;;;;;;29.97;26.97;;;7.50;92.50;;;;;;5034858;28;20157;-89
2023/10/18 08:54:49;;;;;;;27.33;24.70;;;7.60;92.30;;;;;;5033172;28;20197;-89
2023/10/18 08:57:35;;;;;;;27.23;24.63;;;7.60;91.90;;;;;;5032471;28;20687;-88
2023/10/18 09:02:49;;;;;;;26.37;23.73;;;7.80;91.30;;;;;;5034706;28;20177;-89
2023/10/18 09:05:15;;;;;;;25.83;23.17;;;7.90;91.10;;;;;;5032688;28;20310;-89
2023/10/18 09:07:44;;;;;;;25.70;23.43;;;8.00;90.90;;;;;;5034588;28;20165;-90
2023/10/18 09:10:13;;;;;;;24.60;21.90;;;8.10;90.70;;;;;;5033529;28;20184;-89
2023/10/18 09:17:54;;;;;;;21.93;19.80;;;8.30;90.10;;;;;;5034125;28;20184;-91
2023/10/18 09:20:25;;;;;;;25.53;21.73;;;8.30;89.70;;;;;;5032198;28;20179;-90
2023/10/18 09:22:54;;;;;;;28.30;25.67;;;8.40;89.60;;;;;;5033595;28;20153;-90
2023/10/18 09:25:23;;;;;;;30.00;27.27;;;8.50;89.30;;;;;;5032241;28;20217;-90
2023/10/18 09:27:50;;;;;;;27.97;25.87;;;8.50;88.90;;;;;;5032505;28;20275;-89
2023/10/18 09:30:18;;;;;;;30.33;27.90;;;8.60;88.40;;;;;;5032248;28;20169;-89
2023/10/18 09:32:49;;;;;;;26.20;24.20;;;8.70;88.30;;;;;;5032411;28;20589;-89
2023/10/18 09:35:25;;;;;;;28.40;25.80;;;8.80;88.20;;;;;;5033775;28;20610;-89
2023/10/18 09:37:50;;;;;;;27.53;25.30;;;8.80;87.40;;;;;;5032278;28;20164;-90
2023/10/18 09:40:16;;;;;;;28.30;26.00;;;8.90;87.00;;;;;;5032466;28;20226;-90
2023/10/18 09:42:44;;;;;;;27.70;25.43;;;9.00;86.70;;;;;;5032482;28;20668;-89
2023/10/18 09:45:10;;;;;;;28.60;26.40;;;9.10;86.30;;;;;;5032388;28;20231;-89
2023/10/18 09:47:36;;;;;;;28.93;26.63;;;9.20;86.00;;;;;;5031903;28;20607;-90
2023/10/18 09:50:07;;;;;;;27.73;25.47;;;9.30;85.60;;;;;;5032107;28;20177;-89
2023/10/18 09:52:47;;;;;;;31.83;29.07;;;9.50;85.80;;;;;;5032185;28;20165;-89
2023/10/18 09:55:16;;;;;;;20.60;18.83;;;9.50;85.60;;;;;;5032039;28;20250;-90
2023/10/18 09:57:49;;;;;;;20.43;18.83;;;9.50;84.90;;;;;;5032262;28;20180;-90
2023/10/18 10:00:16;;;;;;;19.13;17.63;;;9.40;84.40;;;;;;5032684;28;20173;-90
2023/10/18 10:02:52;;;;;;;19.93;17.93;;;9.60;84.50;;;;;;5033394;28;20169;-90
2023/10/18 10:05:25;;;;;;;20.33;18.47;;;9.60;84.00;;;;;;5031977;28;20680;-91
2023/10/18 10:08:06;;;;;;;21.30;19.50;;;9.80;84.20;;;;;;5032541;28;20166;-91
2023/10/18 10:10:45;;;;;;;19.93;18.03;;;9.90;84.00;;;;;;5032313;28;20260;-91
2023/10/18 10:13:27;;;;;;;18.57;16.90;;;9.90;83.50;;;;;;5033474;28;20219;-89
2023/10/18 10:15:57;;;;;;;19.03;17.20;;;10.10;83.30;;;;;;5032405;28;20193;-91
2023/10/18 10:18:27;;;;;;;17.87;16.47;;;10.10;82.00;;;;;;5032655;28;20173;-90
2023/10/18 10:20:55;;;;;;;20.20;18.33;;;10.20;81.30;;;;;;5034735;28;20173;-91
2023/10/18 10:23:22;;;;;;;18.80;17.20;;;10.20;80.30;;;;;;5037573;28;20256;-90
2023/10/18 10:26:11;;;;;;;20.03;18.37;;;10.20;79.00;;;;;;5036199;28;20223;-90
2023/10/18 10:31:52;;;;;;;21.70;20.03;;;10.20;77.70;;;;;;5037725;28;20157;-90
2023/10/18 10:34:27;;;;;;;21.27;19.77;;;10.30;77.70;;;;;;5036656;28;20184;-91
2023/10/18 10:37:05;;;;;;;22.17;20.27;;;10.30;77.80;;;;;;5036354;28;20226;-90
2023/10/18 10:39:32;;;;;;;30.07;27.93;;;10.30;77.20;;;;;;5036247;28;20176;-91
2023/10/18 10:42:08;;;;;;;27.30;25.50;;;10.50;77.60;;;;;;5038227;28;20637;-90
2023/10/18 10:44:54;;;;;;;25.77;23.93;;;10.50;76.30;;;;;;5035207;28;20211;-89
2023/10/18 10:47:29;;;;;;;27.60;25.47;;;10.50;76.40;;;;;;5035857;28;20173;-90
2023/10/18 10:49:59;;;;;;;27.37;25.27;;;10.60;76.00;;;;;;5035132;28;20255;-90
2023/10/18 10:52:29;;;;;;;29.40;27.30;;;10.70;75.90;;;;;;5035070;28;20211;-91
2023/10/18 10:55:02;;;;;;;29.37;27.37;;;10.70;74.90;;;;;;5036745;28;20208;-91
2023/10/18 10:57:43;;;;;;;18.17;16.80;;;10.60;74.00;;;;;;5035925;28;20177;-90
2023/10/18 11:00:57;;;;;;;18.63;17.33;;;10.70;75.00;;;;;;5035882;28;20173;-91
2023/10/18 11:02:55;;;;;;;20.10;18.07;;;10.80;74.50;;;;;;5029502;28;20195;-91
2023/10/18 11:05:24;;;;;;;20.40;18.43;;;10.80;74.00;;;;;;5034753;28;20209;-91
2023/10/18 11:07:51;;;;;;;20.60;18.83;;;10.90;74.40;;;;;;5035025;28;20182;-90
2023/10/18 11:10:17;;;;;;;19.53;18.20;;;10.90;73.60;;;;;;5034939;28;20196;-90
2023/10/18 11:12:46;;;;;;;20.00;18.50;;;10.90;73.50;;;;;;5036065;28;20169;-92
2023/10/18 11:15:17;;;;;;;20.07;18.57;;;10.90;73.60;;;;;;5034881;28;20219;-91
2023/10/18 11:17:48;;;;;;;22.00;20.00;;;10.90;73.10;;;;;;5035072;28;20203;-91
2023/10/18 11:20:24;;;;;;;20.83;19.10;;;10.80;72.60;;;;;;5036143;28;20235;-88
2023/10/18 11:22:50;;;;;;;21.07;19.33;;;10.80;72.90;;;;;;5034907;28;20590;-89
2023/10/18 11:25:20;;;;;;;20.43;18.93;;;10.90;73.40;;;;;;5034530;28;20212;-88
2023/10/18 11:27:45;;;;;;;20.33;18.60;;;11.00;72.40;;;;;;5034707;28;20199;-90
2023/10/18 11:30:22;;;;;;;20.07;18.67;;;11.20;72.70;;;;;;5035673;28;20168;-88
2023/10/18 11:32:54;;;;;;;20.47;18.87;;;11.20;72.90;;;;;;5033487;28;20207;-89
2023/10/18 11:35:38;;;;;;;21.57;19.63;;;11.30;73.10;;;;;;5034261;28;20196;-89
2023/10/18 11:38:03;;;;;;;21.00;19.40;;;11.30;72.10;;;;;;5034889;28;20513;-90
2023/10/18 11:40:55;;;;;;;23.67;20.23;;;11.30;71.90;;;;;;5034206;28;20184;-90
2023/10/18 11:43:44;;;;;;;21.83;19.73;;;11.30;70.80;;;;;;5027445;28;20195;-90
2023/10/18 11:47:25;;;;;;;25.47;23.43;;;11.40;71.00;;;;;;5030805;28;20204;-90
2023/10/18 11:50:29;;;;;;;31.67;29.37;;;11.50;70.40;;;;;;4974363;28;20616;-90
2023/10/18 11:52:54;;;;;;;32.47;29.80;;;11.40;68.70;;;;;;4962910;28;20194;-90
2023/10/18 11:55:20;;;;;;;31.20;29.10;;;11.60;69.80;;;;;;5032536;28;20204;-90
2023/10/18 11:57:46;;;;;;;30.80;28.60;;;11.60;69.60;;;;;;5035314;28;20195;-89
2023/10/18 12:00:28;;;;;;;32.37;30.10;;;11.70;70.80;;;;;;5033931;28;20172;-91
2023/10/18 12:02:55;;;;;;;33.07;30.53;;;11.70;70.10;;;;;;5035780;28;20176;-91
2023/10/18 12:05:24;;;;;;;31.93;29.60;;;11.70;70.00;;;;;;5033808;28;20683;-91
2023/10/18 12:07:50;;;;;;;27.43;25.37;;;11.70;69.70;;;;;;5033797;28;20176;-91
2023/10/18 12:10:17;;;;;;;22.30;20.50;;;11.70;68.80;;;;;;5034437;28;20189;-91
2023/10/18 12:12:49;;;;;;;21.53;20.03;;;11.80;69.90;;;;;;5033952;28;20173;-91
2023/10/18 12:15:15;;;;;;;22.37;20.13;;;11.70;70.20;;;;;;5033668;28;20206;-91
2023/10/18 12:17:41;;;;;;;21.80;20.10;;;11.80;70.70;;;;;;5034891;28;20633;-91
2023/10/18 12:20:08;;;;;;;22.03;20.53;;;11.80;70.80;;;;;;5033473;28;20678;-90
2023/10/18 12:22:36;;;;;;;21.67;20.03;;;11.80;69.70;;;;;;5033398;28;20181;-90
2023/10/18 12:25:02;;;;;;;22.53;21.00;;;11.80;69.60;;;;;;5034579;28;20205;-90
2023/10/18 12:27:37;;;;;;;21.97;20.20;;;11.80;69.40;;;;;;5034214;28;20184;-91
2023/10/18 12:30:10;;;;;;;21.43;20.03;;;11.80;70.00;;;;;;5033634;28;20175;-91
2023/10/18 12:32:50;;;;;;;22.00;20.30;;;11.80;68.80;;;;;;5033382;28;20211;-92
2023/10/18 12:35:19;;;;;;;21.77;20.10;;;11.70;68.00;;;;;;5034899;28;20192;-91
2023/10/18 12:37:45;;;;;;;21.73;20.23;;;11.80;68.60;;;;;;5033192;28;20208;-92
2023/10/18 12:43:05;;;;;;;21.93;20.33;;;11.70;68.60;;;;;;5035390;28;20171;-91
2023/10/18 12:45:41;;;;;;;21.37;19.87;;;11.70;68.80;;;;;;5033650;28;20235;-93
2023/10/18 12:48:11;;;;;;;22.83;20.50;;;11.70;69.80;;;;;;5033505;28;20172;-91
2023/10/18 12:50:37;;;;;;;22.17;20.37;;;11.70;69.00;;;;;;5036866;28;20555;-91
2023/10/18 12:55:47;;;;;;;23.10;20.93;;;11.80;70.20;;;;;;5050274;28;20231;-93
2023/10/18 12:58:28;;;;;;;21.47;19.57;;;11.80;70.10;;;;;;5054949;28;20261;-92
2023/10/18 13:01:06;;;;;;;21.43;19.80;;;11.80;70.40;;;;;;5053250;28;20176;-93
2023/10/18 13:03:34;;;;;;;32.43;30.27;;;11.80;69.50;;;;;;5050222;28;20188;-93
2023/10/18 13:06:00;;;;;;;31.90;29.00;;;11.70;68.50;;;;;;5048677;28;20208;-92
2023/10/18 13:08:26;;;;;;;31.00;28.90;;;11.60;67.90;;;;;;5049562;28;20173;-93
2023/10/18 13:11:44;;;;;;;30.63;28.43;;;11.60;69.00;;;;;;5054371;28;20188;-93
2023/10/18 13:13:45;;;;;;;31.53;29.43;;;11.70;68.40;;;;;;5053619;28;20245;-93
2023/10/18 13:16:14;;;;;;;31.90;29.90;;;11.70;67.70;;;;;;5050907;28;20231;-93
2023/10/18 13:18:41;;;;;;;32.40;29.93;;;11.70;69.80;;;;;;5051661;28;20316;-92
2023/10/18 13:21:09;;;;;;;32.10;29.90;;;11.60;69.60;;;;;;5051323;28;20161;-92
2023/10/18 13:23:36;;;;;;;21.63;20.00;;;11.60;70.00;;;;;;5051479;28;20565;-92
2023/10/18 13:26:03;;;;;;;21.03;19.63;;;11.60;69.30;;;;;;5041488;28;20199;-93
2023/10/18 13:28:34;;;;;;;22.00;20.50;;;11.50;68.90;;;;;;5043940;28;20718;-93
2023/10/18 13:31:06;;;;;;;22.23;20.50;;;11.50;68.30;;;;;;5046602;28;20180;-92
2023/10/18 13:33:33;;;;;;;22.57;20.87;;;11.50;68.00;;;;;;5044738;28;20164;-92
2023/10/18 13:36:01;;;;;;;20.30;19.00;;;11.40;68.00;;;;;;5047724;28;20200;-91